Earlygrove, Mississippi
Current Conditions -  °F | °C
As of 9:15 PM on Thursday 18 Dec 2014 (Local Time) from KOLV Reporting Station
Overcast Overcast  
Wind Chill: 43°   Ceiling: 2000
Heat Index: 43°   Visibility: 10mi
Dew Point: 39°   Wind: 3mph
Humidity: 87%   Direction: 30°NNE
Pressure: 30.24"   Gusts: NA
Location:  34.9299°N, 89.3078°W
Report Text: KOLV 190315Z AUTO 03003KT 10SM BKN020 OVC030 06/04 A3024 RMK A01 P000
Loading
Personal Weather Stations






























Interactive Weather Map New forecast layout! Learn more

10-Day Weather Forecast

Advertisements
Track Severe Weather on mobile